< < Back
Terminal Aerodrome Forecast


Current Version              Previous Versions:   1  2  3  4  5  6  7  8  9  

Terminal Aerodrome Forecast

968
FTUS42 KILM 291100
TAFFLO
TAF
KFLO 291128Z 2912/3012 01008KT P6SM SCT050 BKN090
     FM292300 VRB02KT P6SM SCT100=



Latest METAR

402
SAUS70 KWBC 291256
MTRFLO
METAR KFLO 291253Z 04008KT 10SM FEW095 24/16 A2994 RMK AO2 SLPNO
T02390156


USA.gov is the U.S. government's official web portal to all federal, state and local government web resources and services.